sensor_id;sensor_type;location;lat;lon;timestamp;temperature;humidity
57088;DHT22;42965;52.846;6.614;2023-05-20T00:02:03;11.60;99.90
57088;DHT22;42965;52.846;6.614;2023-05-20T00:04:29;11.60;99.90
57088;DHT22;42965;52.846;6.614;2023-05-20T00:06:55;11.50;99.90
57088;DHT22;42965;52.846;6.614;2023-05-20T00:09:22;11.60;99.90
57088;DHT22;42965;52.846;6.614;2023-05-20T00:11:48;11.50;99.90
57088;DHT22;42965;52.846;6.614;2023-05-20T00:14:14;11.50;99.90
57088;DHT22;42965;52.846;6.614;2023-05-20T00:16:41;11.50;99.90
57088;DHT22;42965;52.846;6.614;2023-05-20T00:19:10;11.50;99.90
57088;DHT22;42965;52.846;6.614;2023-05-20T00:21:36;11.50;99.90
57088;DHT22;42965;52.846;6.614;2023-05-20T00:24:03;11.50;99.90
57088;DHT22;42965;52.846;6.614;2023-05-20T00:26:29;11.50;99.90
57088;DHT22;42965;52.846;6.614;2023-05-20T00:28:57;11.40;99.90
57088;DHT22;42965;52.846;6.614;2023-05-20T00:31:23;11.50;99.90
57088;DHT22;42965;52.846;6.614;2023-05-20T00:33:53;11.50;99.90
57088;DHT22;42965;52.846;6.614;2023-05-20T00:36:19;11.50;99.90
57088;DHT22;42965;52.846;6.614;2023-05-20T00:38:46;11.50;99.90
57088;DHT22;42965;52.846;6.614;2023-05-20T00:41:12;11.50;99.90
57088;DHT22;42965;52.846;6.614;2023-05-20T00:43:39;11.50;99.90
57088;DHT22;42965;52.846;6.614;2023-05-20T00:46:05;11.60;99.90
57088;DHT22;42965;52.846;6.614;2023-05-20T00:48:39;11.50;99.90
57088;DHT22;42965;52.846;6.614;2023-05-20T00:51:06;11.50;99.90
57088;DHT22;42965;52.846;6.614;2023-05-20T00:53:33;11.50;99.90
57088;DHT22;42965;52.846;6.614;2023-05-20T00:56:00;11.50;99.90
57088;DHT22;42965;52.846;6.614;2023-05-20T00:58:26;11.40;99.90
57088;DHT22;42965;52.846;6.614;2023-05-20T01:00:53;11.50;99.90
57088;DHT22;42965;52.846;6.614;2023-05-20T01:03:19;11.40;99.90
57088;DHT22;42965;52.846;6.614;2023-05-20T01:05:49;11.40;99.90
57088;DHT22;42965;52.846;6.614;2023-05-20T01:08:16;11.50;99.90
57088;DHT22;42965;52.846;6.614;2023-05-20T01:10:45;11.40;99.90
57088;DHT22;42965;52.846;6.614;2023-05-20T01:13:16;11.40;99.90
57088;DHT22;42965;52.846;6.614;2023-05-20T01:15:45;11.50;99.90
57088;DHT22;42965;52.846;6.614;2023-05-20T01:18:13;11.50;99.90
57088;DHT22;42965;52.846;6.614;2023-05-20T01:20:47;11.50;99.90
57088;DHT22;42965;52.846;6.614;2023-05-20T01:23:14;11.50;99.90
57088;DHT22;42965;52.846;6.614;2023-05-20T01:25:42;11.60;99.90
57088;DHT22;42965;52.846;6.614;2023-05-20T01:28:08;11.60;99.90
57088;DHT22;42965;52.846;6.614;2023-05-20T01:30:41;11.60;99.90
57088;DHT22;42965;52.846;6.614;2023-05-20T01:33:11;11.60;99.90
57088;DHT22;42965;52.846;6.614;2023-05-20T01:35:38;11.60;99.90
57088;DHT22;42965;52.846;6.614;2023-05-20T01:38:06;11.60;99.90
57088;DHT22;42965;52.846;6.614;2023-05-20T01:40:34;11.60;99.90
57088;DHT22;42965;52.846;6.614;2023-05-20T01:43:01;11.60;99.90
57088;DHT22;42965;52.846;6.614;2023-05-20T01:45:28;11.50;99.90
57088;DHT22;42965;52.846;6.614;2023-05-20T01:47:54;11.50;99.90
57088;DHT22;42965;52.846;6.614;2023-05-20T01:50:21;11.50;99.90
57088;DHT22;42965;52.846;6.614;2023-05-20T01:52:47;11.60;99.90
57088;DHT22;42965;52.846;6.614;2023-05-20T01:55:13;11.60;99.90
57088;DHT22;42965;52.846;6.614;2023-05-20T01:57:39;11.50;99.90
57088;DHT22;42965;52.846;6.614;2023-05-20T02:00:10;11.50;99.90
57088;DHT22;42965;52.846;6.614;2023-05-20T02:02:44;11.50;99.90
57088;DHT22;42965;52.846;6.614;2023-05-20T02:05:12;11.50;99.90
57088;DHT22;42965;52.846;6.614;2023-05-20T02:07:38;11.40;99.90
57088;DHT22;42965;52.846;6.614;2023-05-20T02:10:05;11.40;99.90
57088;DHT22;42965;52.846;6.614;2023-05-20T02:12:31;11.40;99.90
57088;DHT22;42965;52.846;6.614;2023-05-20T02:14:57;11.40;99.90
57088;DHT22;42965;52.846;6.614;2023-05-20T02:17:23;11.40;99.90
57088;DHT22;42965;52.846;6.614;2023-05-20T02:19:49;11.40;99.90
57088;DHT22;42965;52.846;6.614;2023-05-20T02:22:19;11.40;99.90
57088;DHT22;42965;52.846;6.614;2023-05-20T02:24:46;11.40;99.90
57088;DHT22;42965;52.846;6.614;2023-05-20T02:27:12;11.40;99.90
57088;DHT22;42965;52.846;6.614;2023-05-20T02:29:38;11.30;99.90
57088;DHT22;42965;52.846;6.614;2023-05-20T02:32:05;11.30;99.90
57088;DHT22;42965;52.846;6.614;2023-05-20T02:34:32;11.30;99.90
57088;DHT22;42965;52.846;6.614;2023-05-20T02:36:58;11.30;99.90
57088;DHT22;42965;52.846;6.614;2023-05-20T02:39:24;11.40;99.90
57088;DHT22;42965;52.846;6.614;2023-05-20T02:41:51;11.40;99.90
57088;DHT22;42965;52.846;6.614;2023-05-20T02:44:17;11.40;99.90
57088;DHT22;42965;52.846;6.614;2023-05-20T02:46:43;11.40;99.90
57088;DHT22;42965;52.846;6.614;2023-05-20T02:49:09;11.40;99.90
57088;DHT22;42965;52.846;6.614;2023-05-20T02:51:36;11.40;99.90
57088;DHT22;42965;52.846;6.614;2023-05-20T02:54:02;11.30;99.90
57088;DHT22;42965;52.846;6.614;2023-05-20T02:56:28;11.30;99.90
57088;DHT22;42965;52.846;6.614;2023-05-20T02:58:55;11.30;99.90
57088;DHT22;42965;52.846;6.614;2023-05-20T03:01:22;11.30;99.90
57088;DHT22;42965;52.846;6.614;2023-05-20T03:03:49;11.30;99.90
57088;DHT22;42965;52.846;6.614;2023-05-20T03:06:15;11.30;99.90
57088;DHT22;42965;52.846;6.614;2023-05-20T03:08:41;11.30;99.90
57088;DHT22;42965;52.846;6.614;2023-05-20T03:11:08;11.20;99.90
57088;DHT22;42965;52.846;6.614;2023-05-20T03:13:34;11.30;99.90
57088;DHT22;42965;52.846;6.614;2023-05-20T03:16:00;11.30;99.90
57088;DHT22;42965;52.846;6.614;2023-05-20T03:18:26;11.30;99.90
57088;DHT22;42965;52.846;6.614;2023-05-20T03:20:53;11.20;99.90
57088;DHT22;42965;52.846;6.614;2023-05-20T03:23:19;11.20;99.90
57088;DHT22;42965;52.846;6.614;2023-05-20T03:25:47;11.20;99.90
57088;DHT22;42965;52.846;6.614;2023-05-20T03:28:13;11.20;99.90
57088;DHT22;42965;52.846;6.614;2023-05-20T03:30:39;11.10;99.90
57088;DHT22;42965;52.846;6.614;2023-05-20T03:33:07;11.10;99.90
57088;DHT22;42965;52.846;6.614;2023-05-20T03:35:33;11.00;99.90
57088;DHT22;42965;52.846;6.614;2023-05-20T03:37:59;11.00;99.90
57088;DHT22;42965;52.846;6.614;2023-05-20T03:40:27;10.90;99.90
57088;DHT22;42965;52.846;6.614;2023-05-20T03:42:53;10.90;99.90
57088;DHT22;42965;52.846;6.614;2023-05-20T03:45:21;10.90;99.90
57088;DHT22;42965;52.846;6.614;2023-05-20T03:47:59;10.80;99.90
57088;DHT22;42965;52.846;6.614;2023-05-20T03:50:25;10.80;99.90
57088;DHT22;42965;52.846;6.614;2023-05-20T03:52:51;10.80;99.90
57088;DHT22;42965;52.846;6.614;2023-05-20T03:55:22;10.70;99.90
57088;DHT22;42965;52.846;6.614;2023-05-20T03:57:50;10.70;99.90
57088;DHT22;42965;52.846;6.614;2023-05-20T04:00:16;10.70;99.90
57088;DHT22;42965;52.846;6.614;2023-05-20T04:02:43;10.70;99.90
57088;DHT22;42965;52.846;6.614;2023-05-20T04:05:12;10.60;99.90
57088;DHT22;42965;52.846;6.614;2023-05-20T04:07:39;10.60;99.90
57088;DHT22;42965;52.846;6.614;2023-05-20T04:10:07;10.60;99.90
57088;DHT22;42965;52.846;6.614;2023-05-20T04:12:34;10.60;99.90
57088;DHT22;42965;52.846;6.614;2023-05-20T04:15:02;10.60;99.90
57088;DHT22;42965;52.846;6.614;2023-05-20T04:17:34;10.60;99.90
57088;DHT22;42965;52.846;6.614;2023-05-20T04:20:07;10.60;99.90
57088;DHT22;42965;52.846;6.614;2023-05-20T04:22:35;10.70;99.90
57088;DHT22;42965;52.846;6.614;2023-05-20T04:25:02;10.70;99.90
57088;DHT22;42965;52.846;6.614;2023-05-20T04:27:30;10.70;99.90
57088;DHT22;42965;52.846;6.614;2023-05-20T04:29:59;10.80;99.90
57088;DHT22;42965;52.846;6.614;2023-05-20T04:32:29;10.80;99.90
57088;DHT22;42965;52.846;6.614;2023-05-20T04:34:56;10.90;99.90
57088;DHT22;42965;52.846;6.614;2023-05-20T04:37:23;10.90;99.90
57088;DHT22;42965;52.846;6.614;2023-05-20T04:39:50;11.00;99.90
57088;DHT22;42965;52.846;6.614;2023-05-20T04:42:17;11.10;99.90
57088;DHT22;42965;52.846;6.614;2023-05-20T04:44:45;11.10;99.90
57088;DHT22;42965;52.846;6.614;2023-05-20T04:47:11;11.20;99.90
57088;DHT22;42965;52.846;6.614;2023-05-20T04:49:38;11.30;99.90
57088;DHT22;42965;52.846;6.614;2023-05-20T04:52:06;11.50;99.90
57088;DHT22;42965;52.846;6.614;2023-05-20T04:54:33;11.70;99.90
57088;DHT22;42965;52.846;6.614;2023-05-20T04:56:59;11.70;99.90
57088;DHT22;42965;52.846;6.614;2023-05-20T04:59:26;11.90;99.90
57088;DHT22;42965;52.846;6.614;2023-05-20T05:01:52;11.90;99.90
57088;DHT22;42965;52.846;6.614;2023-05-20T05:04:18;12.00;99.90
57088;DHT22;42965;52.846;6.614;2023-05-20T05:06:47;12.10;99.90
57088;DHT22;42965;52.846;6.614;2023-05-20T05:09:14;12.30;99.90
57088;DHT22;42965;52.846;6.614;2023-05-20T05:11:42;12.40;99.90
57088;DHT22;42965;52.846;6.614;2023-05-20T05:14:09;12.60;99.90
57088;DHT22;42965;52.846;6.614;2023-05-20T05:16:36;12.90;99.90
57088;DHT22;42965;52.846;6.614;2023-05-20T05:19:02;13.00;99.90
57088;DHT22;42965;52.846;6.614;2023-05-20T05:21:31;13.20;99.90
57088;DHT22;42965;52.846;6.614;2023-05-20T05:23:58;13.40;99.90
57088;DHT22;42965;52.846;6.614;2023-05-20T05:26:24;13.60;99.90
57088;DHT22;42965;52.846;6.614;2023-05-20T05:28:53;13.90;99.90
57088;DHT22;42965;52.846;6.614;2023-05-20T05:31:20;13.90;99.90
57088;DHT22;42965;52.846;6.614;2023-05-20T05:33:46;14.10;99.90
57088;DHT22;42965;52.846;6.614;2023-05-20T05:36:15;14.30;99.90
57088;DHT22;42965;52.846;6.614;2023-05-20T05:38:41;14.50;99.90
57088;DHT22;42965;52.846;6.614;2023-05-20T05:41:09;14.70;99.90
57088;DHT22;42965;52.846;6.614;2023-05-20T05:43:36;14.90;99.90
57088;DHT22;42965;52.846;6.614;2023-05-20T05:46:02;15.10;99.90
57088;DHT22;42965;52.846;6.614;2023-05-20T05:48:29;15.30;99.90
57088;DHT22;42965;52.846;6.614;2023-05-20T05:50:56;15.40;99.90
57088;DHT22;42965;52.846;6.614;2023-05-20T05:53:23;15.50;99.90
57088;DHT22;42965;52.846;6.614;2023-05-20T05:55:52;15.30;99.90
57088;DHT22;42965;52.846;6.614;2023-05-20T05:58:18;15.50;99.90
57088;DHT22;42965;52.846;6.614;2023-05-20T06:00:46;15.70;99.90
57088;DHT22;42965;52.846;6.614;2023-05-20T06:03:12;15.80;99.90
57088;DHT22;42965;52.846;6.614;2023-05-20T06:05:39;15.90;99.90
57088;DHT22;42965;52.846;6.614;2023-05-20T06:08:05;16.00;99.90
57088;DHT22;42965;52.846;6.614;2023-05-20T06:10:33;16.00;99.90
57088;DHT22;42965;52.846;6.614;2023-05-20T06:12:59;16.10;99.90
57088;DHT22;42965;52.846;6.614;2023-05-20T06:15:26;16.30;99.90
57088;DHT22;42965;52.846;6.614;2023-05-20T06:17:53;16.40;99.90
57088;DHT22;42965;52.846;6.614;2023-05-20T06:20:20;16.40;99.90
57088;DHT22;42965;52.846;6.614;2023-05-20T06:22:46;16.60;99.90
57088;DHT22;42965;52.846;6.614;2023-05-20T06:25:13;16.70;99.90
57088;DHT22;42965;52.846;6.614;2023-05-20T06:27:40;16.90;99.90
57088;DHT22;42965;52.846;6.614;2023-05-20T06:30:09;16.90;99.90
57088;DHT22;42965;52.846;6.614;2023-05-20T06:32:36;17.00;99.90
57088;DHT22;42965;52.846;6.614;2023-05-20T06:35:02;17.10;99.90
57088;DHT22;42965;52.846;6.614;2023-05-20T06:37:30;17.20;97.70
57088;DHT22;42965;52.846;6.614;2023-05-20T06:39:57;17.20;99.80
57088;DHT22;42965;52.846;6.614;2023-05-20T06:42:24;17.20;98.50
57088;DHT22;42965;52.846;6.614;2023-05-20T06:45:02;17.40;94.80
57088;DHT22;42965;52.846;6.614;2023-05-20T06:47:40;17.50;94.30
57088;DHT22;42965;52.846;6.614;2023-05-20T06:50:07;17.50;94.70
57088;DHT22;42965;52.846;6.614;2023-05-20T06:52:34;17.50;93.60
57088;DHT22;42965;52.846;6.614;2023-05-20T06:55:01;17.60;93.50
57088;DHT22;42965;52.846;6.614;2023-05-20T06:57:28;17.70;93.20
57088;DHT22;42965;52.846;6.614;2023-05-20T06:59:55;17.80;92.70
57088;DHT22;42965;52.846;6.614;2023-05-20T07:02:21;18.10;92.30
57088;DHT22;42965;52.846;6.614;2023-05-20T07:04:48;18.20;90.50
57088;DHT22;42965;52.846;6.614;2023-05-20T07:07:14;18.30;85.60
57088;DHT22;42965;52.846;6.614;2023-05-20T07:09:42;18.30;85.90
57088;DHT22;42965;52.846;6.614;2023-05-20T07:12:08;18.50;85.40
57088;DHT22;42965;52.846;6.614;2023-05-20T07:14:35;18.50;85.30
57088;DHT22;42965;52.846;6.614;2023-05-20T07:17:02;18.70;86.00
57088;DHT22;42965;52.846;6.614;2023-05-20T07:19:29;18.80;84.90
57088;DHT22;42965;52.846;6.614;2023-05-20T07:21:56;19.00;83.40
57088;DHT22;42965;52.846;6.614;2023-05-20T07:24:35;19.00;82.50
57088;DHT22;42965;52.846;6.614;2023-05-20T07:27:03;19.30;80.70
57088;DHT22;42965;52.846;6.614;2023-05-20T07:29:30;19.20;78.30
57088;DHT22;42965;52.846;6.614;2023-05-20T07:31:57;19.30;77.70
57088;DHT22;42965;52.846;6.614;2023-05-20T07:34:23;19.50;75.30
57088;DHT22;42965;52.846;6.614;2023-05-20T07:36:50;19.70;76.00
57088;DHT22;42965;52.846;6.614;2023-05-20T07:39:18;19.80;73.80
57088;DHT22;42965;52.846;6.614;2023-05-20T07:41:44;20.00;72.90
57088;DHT22;42965;52.846;6.614;2023-05-20T07:44:12;20.20;72.60
57088;DHT22;42965;52.846;6.614;2023-05-20T07:46:41;20.20;72.40
57088;DHT22;42965;52.846;6.614;2023-05-20T07:49:09;20.40;69.90
57088;DHT22;42965;52.846;6.614;2023-05-20T07:51:35;20.40;70.20
57088;DHT22;42965;52.846;6.614;2023-05-20T07:54:02;20.70;69.00
57088;DHT22;42965;52.846;6.614;2023-05-20T07:56:28;20.80;66.00
57088;DHT22;42965;52.846;6.614;2023-05-20T07:58:57;20.80;64.40
57088;DHT22;42965;52.846;6.614;2023-05-20T08:01:28;21.00;64.10
57088;DHT22;42965;52.846;6.614;2023-05-20T08:03:54;20.80;65.50
57088;DHT22;42965;52.846;6.614;2023-05-20T08:06:23;21.00;65.20
57088;DHT22;42965;52.846;6.614;2023-05-20T08:08:50;21.30;64.80
57088;DHT22;42965;52.846;6.614;2023-05-20T08:11:23;21.20;64.10
57088;DHT22;42965;52.846;6.614;2023-05-20T08:13:49;21.50;64.20
57088;DHT22;42965;52.846;6.614;2023-05-20T08:16:17;21.60;63.80
57088;DHT22;42965;52.846;6.614;2023-05-20T08:18:44;21.70;63.10
57088;DHT22;42965;52.846;6.614;2023-05-20T08:21:12;21.70;60.10
57088;DHT22;42965;52.846;6.614;2023-05-20T08:23:39;21.90;59.30
57088;DHT22;42965;52.846;6.614;2023-05-20T08:26:05;21.60;60.70
57088;DHT22;42965;52.846;6.614;2023-05-20T08:28:34;21.60;60.70
57088;DHT22;42965;52.846;6.614;2023-05-20T08:31:03;21.90;60.40
57088;DHT22;42965;52.846;6.614;2023-05-20T08:33:31;22.00;60.00
57088;DHT22;42965;52.846;6.614;2023-05-20T08:36:00;22.20;59.40
57088;DHT22;42965;52.846;6.614;2023-05-20T08:38:31;22.30;58.70
57088;DHT22;42965;52.846;6.614;2023-05-20T08:40:58;22.40;58.30
57088;DHT22;42965;52.846;6.614;2023-05-20T08:43:25;22.00;57.60
57088;DHT22;42965;52.846;6.614;2023-05-20T08:45:52;22.10;56.00
57088;DHT22;42965;52.846;6.614;2023-05-20T08:48:22;22.30;57.70
57088;DHT22;42965;52.846;6.614;2023-05-20T08:50:51;22.60;57.90
57088;DHT22;42965;52.846;6.614;2023-05-20T08:53:21;22.60;56.20
57088;DHT22;42965;52.846;6.614;2023-05-20T08:55:55;22.50;56.90
57088;DHT22;42965;52.846;6.614;2023-05-20T08:58:23;22.80;55.30
57088;DHT22;42965;52.846;6.614;2023-05-20T09:00:50;22.90;54.80
57088;DHT22;42965;52.846;6.614;2023-05-20T09:03:18;23.00;54.70
57088;DHT22;42965;52.846;6.614;2023-05-20T09:05:48;23.00;53.50
57088;DHT22;42965;52.846;6.614;2023-05-20T09:08:14;23.00;52.50
57088;DHT22;42965;52.846;6.614;2023-05-20T09:10:41;23.20;52.40
57088;DHT22;42965;52.846;6.614;2023-05-20T09:13:09;23.40;52.20
57088;DHT22;42965;52.846;6.614;2023-05-20T09:15:36;23.20;52.90
57088;DHT22;42965;52.846;6.614;2023-05-20T09:18:04;23.20;52.10
57088;DHT22;42965;52.846;6.614;2023-05-20T09:20:35;23.50;52.10
57088;DHT22;42965;52.846;6.614;2023-05-20T09:23:04;23.40;51.50
57088;DHT22;42965;52.846;6.614;2023-05-20T09:25:34;23.20;51.30
57088;DHT22;42965;52.846;6.614;2023-05-20T09:28:04;23.40;52.30
57088;DHT22;42965;52.846;6.614;2023-05-20T09:30:31;23.40;50.30
57088;DHT22;42965;52.846;6.614;2023-05-20T09:32:59;23.40;50.30
57088;DHT22;42965;52.846;6.614;2023-05-20T09:35:26;23.20;50.80
57088;DHT22;42965;52.846;6.614;2023-05-20T09:37:55;23.50;50.80
57088;DHT22;42965;52.846;6.614;2023-05-20T09:40:28;23.70;50.30
57088;DHT22;42965;52.846;6.614;2023-05-20T09:43:02;23.90;50.30
57088;DHT22;42965;52.846;6.614;2023-05-20T09:45:29;23.80;50.70
57088;DHT22;42965;52.846;6.614;2023-05-20T09:47:56;23.90;49.70
57088;DHT22;42965;52.846;6.614;2023-05-20T09:50:23;24.00;49.80
57088;DHT22;42965;52.846;6.614;2023-05-20T09:52:54;24.00;48.70
57088;DHT22;42965;52.846;6.614;2023-05-20T09:55:22;23.80;49.40
57088;DHT22;42965;52.846;6.614;2023-05-20T09:57:49;24.10;49.10
57088;DHT22;42965;52.846;6.614;2023-05-20T10:00:16;24.30;47.70
57088;DHT22;42965;52.846;6.614;2023-05-20T10:02:47;24.20;48.80
57088;DHT22;42965;52.846;6.614;2023-05-20T10:05:19;23.90;48.70
57088;DHT22;42965;52.846;6.614;2023-05-20T10:13:42;24.70;47.30
57088;DHT22;42965;52.846;6.614;2023-05-20T10:19:35;24.20;47.20
57088;DHT22;42965;52.846;6.614;2023-05-20T10:22:06;23.90;48.10
57088;DHT22;42965;52.846;6.614;2023-05-20T10:24:39;24.00;47.10
57088;DHT22;42965;52.846;6.614;2023-05-20T10:27:13;23.70;47.20
57088;DHT22;42965;52.846;6.614;2023-05-20T10:32:08;23.20;48.20
57088;DHT22;42965;52.846;6.614;2023-05-20T10:34:45;23.10;49.10
57088;DHT22;42965;52.846;6.614;2023-05-20T10:37:31;22.90;49.00
57088;DHT22;42965;52.846;6.614;2023-05-20T10:40:06;23.40;48.90
57088;DHT22;42965;52.846;6.614;2023-05-20T10:42:32;23.30;47.30
57088;DHT22;42965;52.846;6.614;2023-05-20T10:44:59;22.90;47.90
57088;DHT22;42965;52.846;6.614;2023-05-20T10:47:25;23.30;49.20
57088;DHT22;42965;52.846;6.614;2023-05-20T10:49:52;24.00;50.00
57088;DHT22;42965;52.846;6.614;2023-05-20T10:52:18;24.60;49.30
57088;DHT22;42965;52.846;6.614;2023-05-20T10:54:58;24.60;48.00
57088;DHT22;42965;52.846;6.614;2023-05-20T10:57:27;24.80;48.00
57088;DHT22;42965;52.846;6.614;2023-05-20T10:59:54;24.80;48.20
57088;DHT22;42965;52.846;6.614;2023-05-20T11:02:21;24.80;47.50
57088;DHT22;42965;52.846;6.614;2023-05-20T11:04:51;24.30;47.50
57088;DHT22;42965;52.846;6.614;2023-05-20T11:07:29;24.20;48.40
57088;DHT22;42965;52.846;6.614;2023-05-20T11:09:57;24.50;48.00
57088;DHT22;42965;52.846;6.614;2023-05-20T11:12:24;24.20;48.50
57088;DHT22;42965;52.846;6.614;2023-05-20T11:14:51;24.10;48.40
57088;DHT22;42965;52.846;6.614;2023-05-20T11:17:18;24.70;46.80
57088;DHT22;42965;52.846;6.614;2023-05-20T11:19:45;24.70;45.40
57088;DHT22;42965;52.846;6.614;2023-05-20T11:22:12;24.40;45.50
57088;DHT22;42965;52.846;6.614;2023-05-20T11:24:38;24.00;46.40
57088;DHT22;42965;52.846;6.614;2023-05-20T11:27:05;23.70;46.50
57088;DHT22;42965;52.846;6.614;2023-05-20T11:29:32;23.70;46.50
57088;DHT22;42965;52.846;6.614;2023-05-20T11:31:58;24.00;46.10
57088;DHT22;42965;52.846;6.614;2023-05-20T11:34:25;24.10;45.80
57088;DHT22;42965;52.846;6.614;2023-05-20T11:36:58;24.30;45.10
57088;DHT22;42965;52.846;6.614;2023-05-20T11:39:25;24.50;45.50
57088;DHT22;42965;52.846;6.614;2023-05-20T11:41:54;25.10;46.30
57088;DHT22;42965;52.846;6.614;2023-05-20T11:44:21;25.50;46.00
57088;DHT22;42965;52.846;6.614;2023-05-20T11:46:47;26.00;45.20
57088;DHT22;42965;52.846;6.614;2023-05-20T11:49:15;25.50;44.90
57088;DHT22;42965;52.846;6.614;2023-05-20T11:51:44;25.20;43.90
57088;DHT22;42965;52.846;6.614;2023-05-20T11:54:13;25.50;45.90
57088;DHT22;42965;52.846;6.614;2023-05-20T11:56:39;25.10;45.00
57088;DHT22;42965;52.846;6.614;2023-05-20T11:59:10;24.50;45.40
57088;DHT22;42965;52.846;6.614;2023-05-20T12:01:38;23.70;46.40
57088;DHT22;42965;52.846;6.614;2023-05-20T12:04:08;23.40;46.70
57088;DHT22;42965;52.846;6.614;2023-05-20T12:06:36;23.30;46.80
57088;DHT22;42965;52.846;6.614;2023-05-20T12:09:03;23.80;46.60
57088;DHT22;42965;52.846;6.614;2023-05-20T12:11:36;23.80;46.50
57088;DHT22;42965;52.846;6.614;2023-05-20T12:14:03;24.50;46.00
57088;DHT22;42965;52.846;6.614;2023-05-20T12:16:30;25.20;46.20
57088;DHT22;42965;52.846;6.614;2023-05-20T12:18:58;25.80;45.60
57088;DHT22;42965;52.846;6.614;2023-05-20T12:21:24;25.20;45.20
57088;DHT22;42965;52.846;6.614;2023-05-20T12:23:50;25.20;45.90
57088;DHT22;42965;52.846;6.614;2023-05-20T12:26:26;24.60;46.00
57088;DHT22;42965;52.846;6.614;2023-05-20T12:28:53;24.70;45.60
57088;DHT22;42965;52.846;6.614;2023-05-20T12:31:20;25.00;43.80
57088;DHT22;42965;52.846;6.614;2023-05-20T12:33:47;25.20;43.40
57088;DHT22;42965;52.846;6.614;2023-05-20T12:36:13;25.60;43.70
57088;DHT22;42965;52.846;6.614;2023-05-20T12:38:40;24.70;45.30
57088;DHT22;42965;52.846;6.614;2023-05-20T12:41:08;24.40;45.90
57088;DHT22;42965;52.846;6.614;2023-05-20T12:43:34;24.20;46.10
57088;DHT22;42965;52.846;6.614;2023-05-20T12:46:02;24.00;45.30
57088;DHT22;42965;52.846;6.614;2023-05-20T12:48:29;24.40;46.40
57088;DHT22;42965;52.846;6.614;2023-05-20T12:50:55;25.00;45.20
57088;DHT22;42965;52.846;6.614;2023-05-20T12:53:22;25.60;43.50
57088;DHT22;42965;52.846;6.614;2023-05-20T12:55:48;26.20;43.80
57088;DHT22;42965;52.846;6.614;2023-05-20T12:58:14;26.10;44.20
57088;DHT22;42965;52.846;6.614;2023-05-20T13:00:40;25.40;44.60
57088;DHT22;42965;52.846;6.614;2023-05-20T13:03:07;25.10;45.20
57088;DHT22;42965;52.846;6.614;2023-05-20T13:05:33;24.90;45.50
57088;DHT22;42965;52.846;6.614;2023-05-20T13:07:59;24.70;44.60
57088;DHT22;42965;52.846;6.614;2023-05-20T13:10:26;24.60;44.20
57088;DHT22;42965;52.846;6.614;2023-05-20T13:12:52;24.10;45.50
57088;DHT22;42965;52.846;6.614;2023-05-20T13:15:18;24.00;46.10
57088;DHT22;42965;52.846;6.614;2023-05-20T13:17:45;24.20;45.60
57088;DHT22;42965;52.846;6.614;2023-05-20T13:20:11;24.00;45.70
57088;DHT22;42965;52.846;6.614;2023-05-20T13:22:38;24.80;45.50
57088;DHT22;42965;52.846;6.614;2023-05-20T13:25:04;25.50;45.60
57088;DHT22;42965;52.846;6.614;2023-05-20T13:27:31;25.40;44.60
57088;DHT22;42965;52.846;6.614;2023-05-20T13:29:57;24.90;44.90
57088;DHT22;42965;52.846;6.614;2023-05-20T13:32:24;24.50;45.20
57088;DHT22;42965;52.846;6.614;2023-05-20T13:34:53;24.10;46.10
57088;DHT22;42965;52.846;6.614;2023-05-20T13:37:19;23.80;45.70
57088;DHT22;42965;52.846;6.614;2023-05-20T13:39:49;23.60;46.70
57088;DHT22;42965;52.846;6.614;2023-05-20T13:42:17;24.10;44.70
57088;DHT22;42965;52.846;6.614;2023-05-20T13:44:43;24.70;44.00
57088;DHT22;42965;52.846;6.614;2023-05-20T13:47:09;25.40;43.30
57088;DHT22;42965;52.846;6.614;2023-05-20T13:49:37;25.60;44.00
57088;DHT22;42965;52.846;6.614;2023-05-20T13:52:03;24.90;44.00
57088;DHT22;42965;52.846;6.614;2023-05-20T13:54:30;24.40;45.40
57088;DHT22;42965;52.846;6.614;2023-05-20T13:56:56;24.00;46.10
57088;DHT22;42965;52.846;6.614;2023-05-20T13:59:22;23.50;45.90
57088;DHT22;42965;52.846;6.614;2023-05-20T14:01:48;23.90;46.40
57088;DHT22;42965;52.846;6.614;2023-05-20T14:04:15;24.20;45.40
57088;DHT22;42965;52.846;6.614;2023-05-20T14:06:42;24.10;46.20
57088;DHT22;42965;52.846;6.614;2023-05-20T14:09:08;23.80;46.00
57088;DHT22;42965;52.846;6.614;2023-05-20T14:11:34;23.30;46.30
57088;DHT22;42965;52.846;6.614;2023-05-20T14:14:01;22.90;47.90
57088;DHT22;42965;52.846;6.614;2023-05-20T14:16:27;22.80;47.70
57088;DHT22;42965;52.846;6.614;2023-05-20T14:18:53;22.70;48.30
57088;DHT22;42965;52.846;6.614;2023-05-20T14:21:19;22.50;48.40
57088;DHT22;42965;52.846;6.614;2023-05-20T14:23:47;22.40;48.60
57088;DHT22;42965;52.846;6.614;2023-05-20T14:26:13;22.40;48.90
57088;DHT22;42965;52.846;6.614;2023-05-20T14:28:39;22.30;48.70
57088;DHT22;42965;52.846;6.614;2023-05-20T14:31:05;22.20;47.90
57088;DHT22;42965;52.846;6.614;2023-05-20T14:33:31;22.20;48.40
57088;DHT22;42965;52.846;6.614;2023-05-20T14:35:58;22.10;49.00
57088;DHT22;42965;52.846;6.614;2023-05-20T14:38:24;22.00;49.20
57088;DHT22;42965;52.846;6.614;2023-05-20T14:40:51;21.90;50.00
57088;DHT22;42965;52.846;6.614;2023-05-20T14:43:17;21.90;50.00
57088;DHT22;42965;52.846;6.614;2023-05-20T14:45:44;21.90;50.10
57088;DHT22;42965;52.846;6.614;2023-05-20T14:48:11;21.70;50.00
57088;DHT22;42965;52.846;6.614;2023-05-20T14:50:39;21.80;50.50
57088;DHT22;42965;52.846;6.614;2023-05-20T14:53:05;21.70;50.60
57088;DHT22;42965;52.846;6.614;2023-05-20T14:55:31;21.70;50.60
57088;DHT22;42965;52.846;6.614;2023-05-20T14:57:57;21.50;50.90
57088;DHT22;42965;52.846;6.614;2023-05-20T15:00:23;21.40;51.50
57088;DHT22;42965;52.846;6.614;2023-05-20T15:02:53;21.50;51.60
57088;DHT22;42965;52.846;6.614;2023-05-20T15:05:19;21.30;51.80
57088;DHT22;42965;52.846;6.614;2023-05-20T15:07:45;21.30;52.00
57088;DHT22;42965;52.846;6.614;2023-05-20T15:10:11;21.30;51.90
57088;DHT22;42965;52.846;6.614;2023-05-20T15:12:37;21.30;52.10
57088;DHT22;42965;52.846;6.614;2023-05-20T15:15:04;21.30;52.70
57088;DHT22;42965;52.846;6.614;2023-05-20T15:17:31;21.20;52.90
57088;DHT22;42965;52.846;6.614;2023-05-20T15:19:57;21.20;52.80
57088;DHT22;42965;52.846;6.614;2023-05-20T15:22:23;21.30;52.90
57088;DHT22;42965;52.846;6.614;2023-05-20T15:24:49;21.40;53.20
57088;DHT22;42965;52.846;6.614;2023-05-20T15:27:18;21.40;53.00
57088;DHT22;42965;52.846;6.614;2023-05-20T15:29:48;21.50;52.80
57088;DHT22;42965;52.846;6.614;2023-05-20T15:32:15;21.50;52.80
57088;DHT22;42965;52.846;6.614;2023-05-20T15:34:41;21.40;52.80
57088;DHT22;42965;52.846;6.614;2023-05-20T15:37:07;21.30;53.20
57088;DHT22;42965;52.846;6.614;2023-05-20T15:39:36;21.30;53.40
57088;DHT22;42965;52.846;6.614;2023-05-20T15:42:04;21.30;53.30
57088;DHT22;42965;52.846;6.614;2023-05-20T15:44:31;21.40;53.60